Time;durP1;ratioP1;P1;durP2;ratioP2;P2;SDS_P1;SDS_P2;PMS_P1;PMS_P2;Temp;Humidity;BMP_temperature;BMP_pressure;BME280_temperature;BME280_humidity;BME280_pressure;Samples;Min_cycle;Max_cycle;Signal;HPM_P1;HPM_P2
2022/07/31 00:01:24;;;;;;;4.75;1.13;;;;;;;;;;6243338;23;20045;-89
2022/07/31 00:03:51;;;;;;;0.98;0.80;;;;;;;;;;6243708;23;20520;-88
2022/07/31 00:06:18;;;;;;;1.38;0.70;;;;;;;;;;6243241;23;20019;-89
2022/07/31 00:08:44;;;;;;;5.57;1.67;;;;;;;;;;6216170;23;20008;-89
2022/07/31 00:11:10;;;;;;;3.03;1.23;;;;;;;;;;6215765;23;20062;-89
2022/07/31 00:13:36;;;;;;;5.53;1.00;;;;;;;;;;6242809;23;20012;-89
2022/07/31 00:16:03;;;;;;;2.45;1.45;;;;;;;;;;6242212;23;20008;-89
2022/07/31 00:18:29;;;;;;;6.63;1.00;;;;;;;;;;6241930;23;20044;-90
2022/07/31 00:20:55;;;;;;;1.95;1.33;;;;;;;;;;6242676;23;19996;-89
2022/07/31 00:23:21;;;;;;;0.85;0.70;;;;;;;;;;6216362;23;20498;-90
2022/07/31 00:25:47;;;;;;;1.35;1.10;;;;;;;;;;6242819;23;20095;-88
2022/07/31 00:28:13;;;;;;;3.05;2.20;;;;;;;;;;6242366;23;20032;-90
2022/07/31 00:30:38;;;;;;;1.60;1.20;;;;;;;;;;6216757;23;20011;-90
2022/07/31 00:33:05;;;;;;;2.60;1.55;;;;;;;;;;6242614;23;20386;-88
2022/07/31 00:35:31;;;;;;;3.35;1.20;;;;;;;;;;6242876;23;20038;-91
2022/07/31 00:37:57;;;;;;;3.97;1.52;;;;;;;;;;6242572;23;20872;-89
2022/07/31 00:40:23;;;;;;;1.67;1.23;;;;;;;;;;6189413;23;20029;-89
2022/07/31 00:42:49;;;;;;;0.95;0.85;;;;;;;;;;6212793;23;20004;-90
2022/07/31 00:45:15;;;;;;;9.77;1.45;;;;;;;;;;6212419;23;20004;-89
2022/07/31 00:47:42;;;;;;;0.95;0.68;;;;;;;;;;6212266;23;20059;-89
2022/07/31 00:50:09;;;;;;;2.90;0.90;;;21.10;72.20;;;;;;6187643;23;20459;-88
2022/07/31 00:52:35;;;;;;;0.82;0.70;;;;;;;;;;6215169;23;20000;-90
2022/07/31 00:55:01;;;;;;;1.13;1.02;;;;;;;;;;6213875;23;20440;-89
2022/07/31 00:57:27;;;;;;;1.15;0.85;;;;;;;;;;6214501;23;20076;-90
2022/07/31 00:59:53;;;;;;;1.48;1.00;;;;;;;;;;6187665;23;20432;-89
2022/07/31 01:02:19;;;;;;;1.90;1.10;;;;;;;;;;6213657;23;20040;-89
2022/07/31 01:04:45;;;;;;;1.23;0.98;;;;;;;;;;6214262;23;20115;-89
2022/07/31 01:07:11;;;;;;;2.03;1.33;;;;;;;;;;6214678;23;20384;-89
2022/07/31 01:09:37;;;;;;;1.40;1.23;;;;;;;;;;6213558;23;20447;-89
2022/07/31 01:12:11;;;;;;;1.52;0.82;;;20.90;55.40;;;;;;6214362;23;20368;-89
2022/07/31 01:14:42;;;;;;;1.23;0.90;;;20.90;56.20;;;;;;6214386;23;20471;-89
2022/07/31 01:17:09;;;;;;;3.13;1.10;;;;;;;;;;6214745;23;20080;-89
2022/07/31 01:19:39;;;;;;;1.58;1.08;;;;;;;;;;6213454;23;20042;-90
2022/07/31 01:22:08;;;;;;;2.38;0.90;;;;;;;;;;6214750;23;20340;-88
2022/07/31 01:25:03;;;;;;;2.05;1.10;;;;;;;;;;6213820;23;20007;-90
2022/07/31 01:27:38;;;;;;;1.77;1.10;;;20.80;56.10;;;;;;6040313;23;20481;-90
2022/07/31 01:30:04;;;;;;;1.90;1.23;;;;;;;;;;6040264;23;20030;-91
2022/07/31 01:32:50;;;;;;;1.27;0.63;;;21.00;55.50;;;;;;6064060;23;20434;-89
2022/07/31 01:35:26;;;;;;;1.27;0.77;;;;;;;;;;6040128;23;20011;-89
2022/07/31 01:38:02;;;;;;;4.70;0.95;;;20.70;56.30;;;;;;6063882;23;20011;-90
2022/07/31 01:40:28;;;;;;;2.35;1.30;;;;;;;;;;6089526;23;20022;-89
2022/07/31 01:43:01;;;;;;;3.00;1.10;;;;;;;;;;6068873;23;20355;-90
2022/07/31 01:45:28;;;;;;;0.60;0.60;;;;;;;;;;6068967;23;20010;-88
2022/07/31 01:47:55;;;;;;;0.52;0.50;;;;;;;;;;6092831;23;20006;-89
2022/07/31 01:50:23;;;;;;;1.10;0.93;;;;;;;;;;6092948;23;20026;-90
2022/07/31 01:52:49;;;;;;;;;;;19.60;59.80;;;;;;6093695;23;20010;-89
2022/07/31 01:55:17;;;;;;;1.98;1.23;;;19.80;59.10;;;;;;6092743;23;19975;-89
2022/07/31 01:57:44;;;;;;;1.40;1.05;;;;;;;;;;6068037;23;20032;-90
2022/07/31 02:00:11;;;;;;;;;;;20.30;57.80;;;;;;6093443;23;20010;-89
2022/07/31 02:02:38;;;;;;;1.88;1.55;;;;;;;;;;6092755;23;19964;-89
2022/07/31 02:05:06;;;;;;;2.58;1.20;;;;;;;;;;6212800;23;20004;-90
2022/07/31 02:07:34;;;;;;;2.17;1.38;;;;;;;;;;6213743;23;20005;-89
2022/07/31 02:10:00;;;;;;;1.55;0.90;;;;;;;;;;6187001;23;20083;-89
2022/07/31 02:12:27;;;;;;;1.30;0.75;;;;;;;;;;6213755;23;20011;-90
2022/07/31 02:14:55;;;;;;;3.28;2.08;;;;;;;;;;6186416;23;19997;-89
2022/07/31 02:17:21;;;;;;;2.15;1.25;;;;;;;;;;6187322;23;20477;-91
2022/07/31 02:19:47;;;;;;;1.25;0.90;;;;;;;;;;6213525;23;20086;-89
2022/07/31 02:22:14;;;;;;;1.10;0.82;;;;;;;;;;6213204;23;20035;-89
2022/07/31 02:24:40;;;;;;;1.80;1.00;;;;;;;;;;6213514;23;20036;-89
2022/07/31 02:27:06;;;;;;;2.35;0.90;;;;;;;;;;6187391;23;20003;-90
2022/07/31 02:29:33;;;;;;;1.58;1.00;;;;;;;;;;6187026;23;20013;-89
2022/07/31 02:32:01;;;;;;;2.17;1.40;;;20.30;57.80;;;;;;6187048;23;20609;-89
2022/07/31 02:34:28;;;;;;;2.38;1.23;;;;;;;;;;6212662;23;20253;-89
2022/07/31 02:36:54;;;;;;;1.67;1.08;;;;;;;;;;6187247;23;20008;-88
2022/07/31 02:39:20;;;;;;;1.35;1.10;;;;;;;;;;6226822;23;20038;-89
2022/07/31 02:41:47;;;;;;;2.13;0.88;;;;;;;;;;6244185;23;20022;-90
2022/07/31 02:44:15;;;;;;;1.43;1.00;;;;;;;;;;6217036;23;20008;-88
2022/07/31 02:46:44;;;;;;;1.65;0.93;;;;;;;;;;6243526;23;20828;-89
2022/07/31 02:49:15;;;;;;;0.95;0.90;;;;;;;;;;6243891;23;20313;-90
2022/07/31 02:51:41;;;;;;;1.35;0.85;;;;;;;;;;6243614;23;20000;-89
2022/07/31 02:54:07;;;;;;;1.30;1.13;;;;;;;;;;6243286;23;20031;-89
2022/07/31 02:56:33;;;;;;;1.67;1.15;;;;;;;;;;6243924;23;19997;-89
2022/07/31 02:58:59;;;;;;;3.30;1.05;;;;;;;;;;6243780;23;20386;-89
2022/07/31 03:01:26;;;;;;;1.45;1.05;;;;;;;;;;6243764;23;20000;-89
2022/07/31 03:03:52;;;;;;;2.20;0.80;;;;;;;;;;6244027;23;20482;-89
2022/07/31 03:06:18;;;;;;;1.98;0.90;;;;;;;;;;6216755;23;20378;-90
2022/07/31 03:08:44;;;;;;;3.78;1.52;;;;;;;;;;6216396;23;20008;-89
2022/07/31 03:11:11;;;;;;;1.73;0.90;;;;;;;;;;6243433;23;20478;-88
2022/07/31 03:13:37;;;;;;;1.38;1.10;;;;;;;;;;6243451;23;20011;-88
2022/07/31 03:16:10;;;;;;;1.50;1.15;;;;;;;;;;6243191;23;20003;-89
2022/07/31 03:18:36;;;;;;;2.88;1.00;;;;;;;;;;6243449;23;20022;-90
2022/07/31 03:21:02;;;;;;;1.80;1.23;;;;;;;;;;6242961;23;20012;-90
2022/07/31 03:23:35;;;;;;;2.78;1.30;;;;;;;;;;6243937;23;20058;-89
2022/07/31 03:26:01;;;;;;;1.38;0.75;;;;;;;;;;6243677;23;20023;-88
2022/07/31 03:28:27;;;;;;;1.20;1.10;;;;;;;;;;6243465;23;19996;-89
2022/07/31 03:30:54;;;;;;;2.17;1.17;;;;;;;;;;6216092;23;20000;-89
2022/07/31 03:33:21;;;;;;;2.28;1.45;;;;;;;;;;6243662;23;20024;-89
2022/07/31 03:35:47;;;;;;;2.00;1.42;;;;;;;;;;6243551;23;20035;-89
2022/07/31 03:38:13;;;;;;;2.13;0.93;;;;;;;;;;6243653;23;20055;-89
2022/07/31 03:40:39;;;;;;;5.75;1.67;;;;;;;;;;6242985;23;20033;-89
2022/07/31 03:43:06;;;;;;;3.20;1.30;;;20.50;57.60;;;;;;6243905;23;19996;-89
2022/07/31 03:45:33;;;;;;;3.30;1.17;;;;;;;;;;6243493;23;20004;-88
2022/07/31 03:48:00;;;;;;;2.17;1.42;;;;;;;;;;6216261;23;20027;-89
2022/07/31 03:50:26;;;;;;;1.50;1.10;;;;;;;;;;6216162;23;20003;-89
2022/07/31 03:52:52;;;;;;;1.95;1.38;;;;;;;;;;6243505;23;20000;-89
2022/07/31 03:55:18;;;;;;;1.27;0.98;;;;;;;;;;6243703;23;20030;-88
2022/07/31 03:57:44;;;;;;;2.78;1.20;;;;;;;;;;6216817;23;20343;-89
2022/07/31 04:00:11;;;;;;;11.02;1.40;;;;;;;;;;6243522;23;20061;-88
2022/07/31 04:02:37;;;;;;;2.03;1.00;;;;;;;;;;6243631;23;20004;-89
2022/07/31 04:05:03;;;;;;;1.15;0.75;;;;;;;;;;6215864;23;20010;-89
2022/07/31 04:07:29;;;;;;;1.92;1.02;;;;;;;;;;6243203;23;20011;-91
2022/07/31 04:09:55;;;;;;;1.77;1.15;;;;;;;;;;6216742;23;20008;-89
2022/07/31 04:12:21;;;;;;;1.60;1.27;;;;;;;;;;6243521;23;20347;-88
2022/07/31 04:14:47;;;;;;;4.43;1.20;;;;;;;;;;6242921;23;20009;-89
2022/07/31 04:17:13;;;;;;;5.65;1.50;;;;;;;;;;6243666;23;20004;-89
2022/07/31 04:19:39;;;;;;;1.30;0.98;;;;;;;;;;6242581;23;20447;-89
2022/07/31 04:22:07;;;;;;;5.60;0.98;;;;;;;;;;6243340;23;20086;-89
2022/07/31 04:24:33;;;;;;;2.05;1.15;;;;;;;;;;6244123;23;20005;-89
2022/07/31 04:26:59;;;;;;;4.82;1.38;;;;;;;;;;6245408;23;20015;-89
2022/07/31 04:29:27;;;;;;;2.92;1.67;;;;;;;;;;6244911;23;20004;-90
2022/07/31 04:31:54;;;;;;;1.80;1.10;;;;;;;;;;6245199;23;20000;-88
2022/07/31 04:34:20;;;;;;;1.52;1.25;;;;;;;;;;6245126;23;20012;-90
2022/07/31 04:36:46;;;;;;;1.60;1.05;;;;;;;;;;6245354;23;20004;-89
2022/07/31 04:39:12;;;;;;;13.75;1.52;;;;;;;;;;6245212;23;20026;-89
2022/07/31 04:41:38;;;;;;;1.33;1.23;;;;;;;;;;6245360;23;20000;-89
2022/07/31 04:44:04;;;;;;;1.13;0.80;;;;;;;;;;6244266;23;20000;-90
2022/07/31 04:46:30;;;;;;;0.85;0.80;;;;;;;;;;6218266;23;20087;-90
2022/07/31 04:48:56;;;;;;;1.83;1.00;;;;;;;;;;6217978;23;20083;-89
2022/07/31 04:51:23;;;;;;;1.40;1.08;;;;;;;;;;6245152;23;20513;-88
2022/07/31 04:53:49;;;;;;;1.05;0.82;;;20.10;59.80;;;;;;6218282;23;20087;-89
2022/07/31 04:56:36;;;;;;;3.42;1.23;;;;;;;;;;6218170;23;20000;-90
2022/07/31 04:59:07;;;;;;;1.98;1.80;;;18.90;62.60;;;;;;6244919;23;20015;-89
2022/07/31 05:01:33;;;;;;;4.13;1.42;;;;;;;;;;6244883;23;20008;-90
2022/07/31 05:04:00;;;;;;;2.05;1.27;;;;;;;;;;6217419;23;20462;-89
2022/07/31 05:06:34;;;;;;;4.17;1.13;;;;;;;;;;6218023;23;20032;-89
2022/07/31 05:09:00;;;;;;;1.30;1.10;;;;;;;;;;6244761;23;20008;-88
2022/07/31 05:11:26;;;;;;;2.90;1.33;;;;;;;;;;6244910;23;20011;-89
2022/07/31 05:13:53;;;;;;;1.15;0.85;;;;;;;;;;6218084;23;20008;-90
2022/07/31 05:16:19;;;;;;;2.17;1.42;;;18.40;64.90;;;;;;6244042;23;20001;-88
2022/07/31 05:18:46;;;;;;;1.40;1.30;;;;;;;;;;6242394;23;20008;-89
2022/07/31 05:21:12;;;;;;;1.38;1.17;;;;;;;;;;6242196;23;20008;-89
2022/07/31 05:23:39;;;;;;;;;;;18.70;64.30;;;;;;6243165;23;20047;-89
2022/07/31 05:26:05;;;;;;;2.17;1.00;;;;;;;;;;6214447;23;19904;-90
2022/07/31 05:28:32;;;;;;;2.55;1.30;;;;;;;;;;6241473;23;20009;-90
2022/07/31 05:30:58;;;;;;;2.25;1.63;;;;;;;;;;6242438;23;20053;-88
2022/07/31 05:33:24;;;;;;;1.17;0.90;;;;;;;;;;6244343;23;20523;-89
2022/07/31 05:35:50;;;;;;;1.27;1.10;;;;;;;;;;6244651;23;20016;-90
2022/07/31 05:38:16;;;;;;;2.78;1.38;;;;;;;;;;6217598;23;20012;-90
2022/07/31 05:40:42;;;;;;;1.05;0.95;;;;;;;;;;6213260;23;20091;-88
2022/07/31 05:43:09;;;;;;;2.10;1.45;;;;;;;;;;6187992;23;20644;-88
2022/07/31 05:45:35;;;;;;;5.28;2.22;;;;;;;;;;6214119;23;20008;-90
2022/07/31 05:48:02;;;;;;;3.00;1.30;;;;;;;;;;6213784;23;20083;-89
2022/07/31 05:50:28;;;;;;;1.52;1.17;;;;;;;;;;6213580;23;20444;-88
2022/07/31 05:52:54;;;;;;;1.95;1.08;;;;;;;;;;6213786;23;20055;-89
2022/07/31 05:55:20;;;;;;;1.23;1.13;;;;;;;;;;6214435;23;20004;-89
2022/07/31 05:57:46;;;;;;;1.55;0.93;;;;;;;;;;6213887;23;20016;-90
2022/07/31 06:00:12;;;;;;;1.83;1.17;;;;;;;;;;6186780;23;20020;-88
2022/07/31 06:02:39;;;;;;;2.30;1.10;;;;;;;;;;6213966;23;20088;-88
2022/07/31 06:05:05;;;;;;;2.20;1.10;;;;;;;;;;6187561;23;20045;-89
2022/07/31 06:07:31;;;;;;;1.40;1.05;;;;;;;;;;6187783;23;20004;-89
2022/07/31 06:09:57;;;;;;;3.20;1.25;;;;;;;;;;6186869;23;20015;-89
2022/07/31 06:12:23;;;;;;;3.80;1.10;;;;;;;;;;6212955;23;20079;-87
2022/07/31 06:14:49;;;;;;;1.25;1.10;;;21.70;59.30;;;;;;6188678;23;20000;-93
2022/07/31 06:17:15;;;;;;;3.92;1.27;;;;;;;;;;6187112;23;20008;-95
2022/07/31 06:19:41;;;;;;;1.52;1.20;;;;;;;;;;6185653;23;20775;-96
2022/07/31 06:22:07;;;;;;;2.88;1.58;;;;;;;;;;6214314;23;20016;-96
2022/07/31 06:24:33;;;;;;;1.73;1.17;;;;;;;;;;6185431;23;20399;-96
2022/07/31 06:27:00;;;;;;;2.60;1.35;;;22.70;57.60;;;;;;6185654;23;20091;-93
2022/07/31 06:29:27;;;;;;;1.65;1.20;;;;;;;;;;6188100;23;20004;-93
2022/07/31 06:31:53;;;;;;;1.00;0.90;;;;;;;;;;6215132;23;20000;-94
2022/07/31 06:34:19;;;;;;;1.67;1.17;;;;;;;;;;6214687;23;20075;-94
2022/07/31 06:36:45;;;;;;;1.38;0.90;;;;;;;;;;6214422;23;20055;-93
2022/07/31 06:39:11;;;;;;;1.08;0.80;;;;;;;;;;6226494;23;20657;-93
2022/07/31 06:41:45;;;;;;;1.88;0.90;;;;;;;;;;6218216;23;20035;-93
2022/07/31 06:44:12;;;;;;;2.30;1.00;;;;;;;;;;6220609;23;20451;-95
2022/07/31 06:46:38;;;;;;;1.95;0.88;;;;;;;;;;6222711;23;20010;-96
2022/07/31 06:49:04;;;;;;;1.25;0.90;;;;;;;;;;6250147;23;20008;-96
2022/07/31 06:51:31;;;;;;;1.53;1.30;;;;;;;;;;6248979;23;20083;-95
2022/07/31 06:53:58;;;;;;;1.15;0.82;;;;;;;;;;6224350;23;20012;-95
2022/07/31 06:56:23;;;;;;;;;;;23.90;53.00;;;;;;6225367;23;20011;-95
2022/07/31 06:58:49;;;;;;;0.70;0.70;;;;;;;;;;6249894;23;19904;-95
2022/07/31 07:01:15;;;;;;;1.33;0.82;;;;;;;;;;6252632;23;20023;-96
2022/07/31 07:03:42;;;;;;;2.67;1.13;;;;;;;;;;6250837;23;20008;-96
2022/07/31 07:06:08;;;;;;;0.90;0.82;;;;;;;;;;6251628;23;20008;-96
2022/07/31 08:45:36;;;;;;;1.17;0.50;;;;;;;;;;5138761;27;20381;-96
2022/07/31 08:48:03;;;;;;;0.65;0.40;;;;;;;;;;5123076;27;20032;-96
2022/07/31 08:50:29;;;;;;;;;;;;;;;;;;5131835;27;20022;-95
2022/07/31 08:52:55;;;;;;;;;;;42.20;27.90;;;;;;5125242;27;19911;-96
2022/07/31 08:55:22;;;;;;;2.05;0.57;;;;;;;;;;5124193;27;19951;-96
2022/07/31 08:57:48;;;;;;;1.00;0.47;;;;;;;;;;5134797;27;20055;-96
2022/07/31 09:00:16;;;;;;;0.85;0.40;;;;;;;;;;5130804;27;20492;-96
2022/07/31 09:02:42;;;;;;;1.55;0.57;;;;;;;;;;5112123;27;20035;-96
2022/07/31 09:05:09;;;;;;;3.63;0.45;;;;;;;;;;5136324;27;20142;-95
2022/07/31 09:07:34;;;;;;;;;;;41.40;28.00;;;;;;5129162;27;20054;-96
2022/07/31 09:10:00;;;;;;;;;;;41.40;28.00;;;;;;5117314;27;20665;-95
2022/07/31 09:12:28;;;;;;;0.80;0.43;;;;;;;;;;5128883;27;19904;-95
2022/07/31 09:14:54;;;;;;;0.68;0.28;;;;;;;;;;5109348;27;20038;-96
2022/07/31 09:17:31;;;;;;;0.73;0.40;;;41.60;27.50;;;;;;5143120;27;20039;-96
2022/07/31 09:19:57;;;;;;;1.50;0.68;;;;;;;;;;5125238;27;20100;-96
2022/07/31 09:22:25;;;;;;;3.28;0.40;;;39.50;28.40;;;;;;5125695;27;20023;-96
2022/07/31 09:24:52;;;;;;;0.65;0.40;;;;;;;;;;5110000;27;20035;-95
2022/07/31 09:27:18;;;;;;;0.55;0.28;;;;;;;;;;5132689;27;20031;-96
2022/07/31 09:29:47;;;;;;;1.50;0.30;;;35.60;31.90;;;;;;5134697;27;20110;-96
2022/07/31 09:32:20;;;;;;;0.55;0.50;;;36.00;32.40;;;;;;5125055;27;20027;-96
2022/07/31 09:34:47;;;;;;;1.38;0.32;;;;;;;;;;5126088;27;20056;-95
2022/07/31 09:37:15;;;;;;;1.85;0.60;;;;;;;;;;5120182;27;20032;-96
2022/07/31 09:39:42;;;;;;;0.93;0.80;;;;;;;;;;5127347;28;20019;-95
2022/07/31 09:42:08;;;;;;;0.75;0.38;;;;;;;;;;5115772;27;20122;-96
2022/07/31 09:44:41;;;;;;;0.20;0.10;;;;;;;;;;5123130;27;21622;-95
2022/07/31 09:47:20;;;;;;;1.52;0.52;;;;;;;;;;5110999;27;20040;-96
2022/07/31 09:49:51;;;;;;;3.15;0.70;;;;;;;;;;5114771;28;20485;-96
2022/07/31 09:52:21;;;;;;;1.63;0.30;;;;;;;;;;5103814;27;20030;-95
2022/07/31 09:54:47;;;;;;;0.65;0.50;;;;;;;;;;5112123;28;20063;-95
2022/07/31 09:57:14;;;;;;;4.40;0.80;;;;;;;;;;5097837;27;20066;-96
2022/07/31 09:59:40;;;;;;;2.50;0.47;;;;;;;;;;5107265;27;20031;-95
2022/07/31 10:02:07;;;;;;;0.95;0.50;;;;;;;;;;5109636;27;20024;-96
2022/07/31 10:04:35;;;;;;;0.57;0.40;;;;;;;;;;5123572;27;20031;-95
2022/07/31 10:07:01;;;;;;;2.42;1.02;;;;;;;;;;5100887;27;20032;-96
2022/07/31 10:09:28;;;;;;;6.07;2.20;;;;;;;;;;5102315;28;20055;-96
2022/07/31 10:11:55;;;;;;;1.88;0.73;;;;;;;;;;5111812;27;20050;-96
2022/07/31 10:14:23;;;;;;;8.85;3.00;;;;;;;;;;5092193;28;20047;-96
2022/07/31 10:16:51;;;;;;;1.75;0.65;;;;;;;;;;5096758;28;20072;-96
2022/07/31 10:19:18;;;;;;;1.15;0.52;;;;;;;;;;5118891;27;20046;-96
2022/07/31 10:21:58;;;;;;;4.13;1.42;;;33.90;34.30;;;;;;5109998;27;20015;-96
2022/07/31 10:24:29;;;;;;;3.70;1.23;;;33.20;34.80;;;;;;5114143;27;20456;-96
2022/07/31 10:26:58;;;;;;;6.95;2.60;;;33.40;35.10;;;;;;5116275;27;20023;-96
2022/07/31 10:29:25;;;;;;;1.95;1.23;;;;;;;;;;5118082;27;20031;-96
2022/07/31 10:31:51;;;;;;;1.85;1.33;;;;;;;;;;5104991;27;20507;-95
2022/07/31 10:34:17;;;;;;;1.23;0.70;;;;;;;;;;5119305;27;20051;-96
2022/07/31 10:36:45;;;;;;;0.63;0.50;;;37.40;29.90;;;;;;5106212;27;20024;-95
2022/07/31 10:39:14;;;;;;;1.95;0.75;;;;;;;;;;5105859;27;20089;-96
2022/07/31 10:42:03;;;;;;;1.42;0.73;;;35.40;32.30;;;;;;5104938;27;20024;-95
2022/07/31 10:44:33;;;;;;;0.80;0.60;;;;;;;;;;5113769;27;20097;-94
2022/07/31 10:46:59;;;;;;;1.23;0.65;;;;;;;;;;5097142;28;20094;-95
2022/07/31 10:49:41;;;;;;;1.80;0.50;;;34.50;33.10;;;;;;5112063;27;20606;-94
2022/07/31 10:52:08;;;;;;;0.85;0.40;;;;;;;;;;5116219;27;20269;-96
2022/07/31 10:54:44;;;;;;;0.93;0.63;;;;;;;;;;5093922;28;20028;-95
2022/07/31 10:57:10;;;;;;;;;;;;;;;;;;5091411;27;20139;-95
2022/07/31 10:59:36;;;;;;;0.88;0.40;;;;;;;;;;5115474;27;19995;-94
2022/07/31 11:02:02;;;;;;;2.33;1.23;;;;;;;;;;5087134;28;20089;-95
2022/07/31 11:04:33;;;;;;;1.13;0.30;;;34.10;33.00;;;;;;5112090;27;20269;-95
2022/07/31 11:06:59;;;;;;;1.25;0.73;;;;;;;;;;5104636;27;20027;-92
2022/07/31 11:09:26;;;;;;;2.17;0.90;;;;;;;;;;5123728;27;20102;-94
2022/07/31 11:11:53;;;;;;;2.70;0.60;;;33.50;35.10;;;;;;5100496;27;20216;-94
2022/07/31 11:14:32;;;;;;;;;;;33.30;35.20;;;;;;5093694;28;20036;-94
2022/07/31 11:16:58;;;;;;;0.95;0.47;;;;;;;;;;5110230;27;19911;-94
2022/07/31 11:19:25;;;;;;;1.15;0.52;;;;;;;;;;5109045;27;20079;-95
2022/07/31 11:21:56;;;;;;;4.20;0.80;;;;;;;;;;5114610;27;20832;-93
2022/07/31 11:24:22;;;;;;;1.17;0.77;;;;;;;;;;5099921;28;20024;-94
2022/07/31 11:26:49;;;;;;;1.13;0.43;;;;;;;;;;5096346;28;20115;-94
2022/07/31 11:29:25;;;;;;;2.42;0.82;;;;;;;;;;5111437;27;20039;-93
2022/07/31 11:31:51;;;;;;;3.45;0.50;;;;;;;;;;5098717;27;20034;-93
2022/07/31 11:34:17;;;;;;;1.30;0.67;;;;;;;;;;5094989;28;20043;-94
2022/07/31 11:36:43;;;;;;;1.10;0.52;;;;;;;;;;5109198;27;20166;-93
2022/07/31 11:39:12;;;;;;;3.95;1.60;;;;;;;;;;5114656;27;20054;-94
2022/07/31 11:41:38;;;;;;;0.80;0.50;;;31.70;38.30;;;;;;5101030;27;20032;-93
2022/07/31 11:44:04;;;;;;;1.23;0.52;;;31.50;37.90;;;;;;5093710;28;20046;-93
2022/07/31 11:46:32;;;;;;;0.65;0.45;;;31.70;37.30;;;;;;5100401;27;20030;-95
2022/07/31 11:48:59;;;;;;;1.45;0.65;;;31.90;37.70;;;;;;5104138;27;20027;-95
2022/07/31 11:51:26;;;;;;;1.33;0.70;;;;;;;;;;5110021;27;20016;-96
2022/07/31 11:53:54;;;;;;;1.50;0.60;;;;;;;;;;5095173;27;20102;-93
2022/07/31 11:56:20;;;;;;;0.52;0.47;;;32.40;36.80;;;;;;5111105;27;20032;-94
2022/07/31 11:58:52;;;;;;;2.80;0.52;;;32.50;37.10;;;;;;5108608;27;20075;-93
2022/07/31 12:01:18;;;;;;;1.02;0.52;;;;;;;;;;5094962;28;20038;-93
2022/07/31 12:03:45;;;;;;;2.35;1.00;;;;;;;;;;5105496;27;20028;-93
2022/07/31 12:06:12;;;;;;;;;;;;;;;;;;5107674;27;20032;-94
2022/07/31 12:08:39;;;;;;;1.00;0.35;;;32.80;36.20;;;;;;5116894;27;19911;-92
2022/07/31 12:11:06;;;;;;;;;;;32.80;35.30;;;;;;5092547;27;20052;-93
2022/07/31 12:13:32;;;;;;;0.60;0.40;;;;;;;;;;5107930;27;19922;-93
2022/07/31 12:16:04;;;;;;;0.97;0.60;;;;;;;;;;5115645;27;20028;-93
2022/07/31 12:18:32;;;;;;;1.13;0.60;;;;;;;;;;5117874;27;20055;-92
2022/07/31 12:21:00;;;;;;;1.58;0.47;;;31.90;35.70;;;;;;5095747;27;20039;-93
2022/07/31 12:23:27;;;;;;;0.82;0.50;;;;;;;;;;5097452;27;20111;-93
2022/07/31 12:25:53;;;;;;;0.70;0.45;;;;;;;;;;5110564;27;20050;-93
2022/07/31 12:28:19;;;;;;;1.73;0.77;;;;;;;;;;5108594;28;20080;-94
2022/07/31 12:30:45;;;;;;;1.58;0.52;;;;;;;;;;5098702;28;20491;-93
2022/07/31 12:33:12;;;;;;;3.70;0.63;;;31.50;37.00;;;;;;5109855;28;20122;-92
2022/07/31 12:35:42;;;;;;;0.80;0.45;;;;;;;;;;5114662;28;20089;-93
2022/07/31 12:38:09;;;;;;;1.45;0.68;;;31.60;36.90;;;;;;5099029;28;20148;-94
2022/07/31 12:40:35;;;;;;;2.92;0.70;;;;;;;;;;5091625;28;20515;-92
2022/07/31 12:43:02;;;;;;;3.42;0.50;;;;;;;;;;5101541;28;20024;-93
2022/07/31 12:45:36;;;;;;;2.53;0.90;;;32.00;36.20;;;;;;5121744;28;20097;-93
2022/07/31 12:48:03;;;;;;;2.75;0.47;;;;;;;;;;5108299;28;20027;-93
2022/07/31 12:50:29;;;;;;;;;;;;;;;;;;5125913;28;20039;-94
2022/07/31 12:52:59;;;;;;;2.88;0.93;;;31.80;37.00;;;;;;5095707;28;19950;-93
2022/07/31 12:55:25;;;;;;;4.22;0.50;;;;;;;;;;5117555;28;20038;-93
2022/07/31 12:57:51;;;;;;;1.10;0.50;;;;;;;;;;5112863;28;20031;-93
2022/07/31 13:00:17;;;;;;;1.70;0.60;;;;;;;;;;5093539;28;20035;-93
2022/07/31 13:02:44;;;;;;;3.30;0.82;;;;;;;;;;5103240;28;20262;-94
2022/07/31 13:05:10;;;;;;;3.95;0.43;;;;;;;;;;5107265;28;20280;-92
2022/07/31 13:07:36;;;;;;;2.20;1.03;;;;;;;;;;5105242;28;20028;-92
2022/07/31 13:10:02;;;;;;;2.75;1.95;;;;;;;;;;5112404;28;20102;-94
2022/07/31 13:12:28;;;;;;;0.95;0.65;;;;;;;;;;5105840;28;20092;-94
2022/07/31 13:14:54;;;;;;;0.32;0.30;;;;;;;;;;5102443;28;20039;-93
2022/07/31 13:17:20;;;;;;;0.80;0.60;;;;;;;;;;5091803;28;20027;-93
2022/07/31 13:19:46;;;;;;;1.00;0.60;;;;;;;;;;5106779;28;20043;-94
2022/07/31 13:22:12;;;;;;;3.08;0.85;;;;;;;;;;5089471;28;20028;-93
2022/07/31 13:24:38;;;;;;;3.92;0.50;;;;;;;;;;5112133;27;20023;-92
2022/07/31 13:27:04;;;;;;;0.80;0.53;;;;;;;;;;5111525;27;20496;-92
2022/07/31 13:29:30;;;;;;;13.95;0.88;;;;;;;;;;5094420;28;20035;-92
2022/07/31 13:31:56;;;;;;;1.05;0.60;;;;;;;;;;5108201;27;20019;-93
2022/07/31 13:34:22;;;;;;;3.83;1.05;;;;;;;;;;5116782;27;20055;-94
2022/07/31 13:36:48;;;;;;;0.88;0.57;;;;;;;;;;5094827;27;20023;-92
2022/07/31 13:39:14;;;;;;;2.47;0.90;;;;;;;;;;5118002;27;20447;-93
2022/07/31 13:41:40;;;;;;;0.77;0.65;;;;;;;;;;5119266;27;20098;-94
2022/07/31 13:44:07;;;;;;;5.32;0.80;;;;;;;;;;5115844;27;20134;-93
2022/07/31 13:46:33;;;;;;;1.23;0.63;;;;;;;;;;5100836;27;20032;-93
2022/07/31 13:48:59;;;;;;;1.23;0.70;;;;;;;;;;5103865;27;20049;-95
2022/07/31 13:51:25;;;;;;;0.70;0.45;;;;;;;;;;5100120;27;20092;-92
2022/07/31 13:53:51;;;;;;;1.98;0.60;;;;;;;;;;5121548;27;20065;-93
2022/07/31 13:56:18;;;;;;;1.45;0.80;;;;;;;;;;5096682;28;20020;-93
2022/07/31 13:58:44;;;;;;;0.73;0.57;;;;;;;;;;5098958;27;20027;-92
2022/07/31 14:01:10;;;;;;;1.40;0.90;;;;;;;;;;5094130;27;20035;-91
2022/07/31 14:03:37;;;;;;;2.70;0.50;;;31.50;37.10;;;;;;5117398;27;20603;-93
2022/07/31 14:06:03;;;;;;;2.42;0.68;;;;;;;;;;5120554;27;20032;-93
2022/07/31 14:08:29;;;;;;;2.22;0.88;;;;;;;;;;5104658;27;20033;-92
2022/07/31 14:10:56;;;;;;;1.20;0.50;;;;;;;;;;5097739;27;20032;-93
2022/07/31 14:13:22;;;;;;;0.95;0.47;;;;;;;;;;5116481;27;20035;-91
2022/07/31 14:15:48;;;;;;;3.45;0.60;;;;;;;;;;5110568;27;20032;-92
2022/07/31 14:18:14;;;;;;;1.95;0.75;;;;;;;;;;5108493;27;20023;-93
2022/07/31 14:20:40;;;;;;;0.93;0.40;;;;;;;;;;5113042;27;20019;-93
2022/07/31 14:23:07;;;;;;;1.13;0.70;;;;;;;;;;5108787;27;20269;-92
2022/07/31 14:25:36;;;;;;;1.88;0.52;;;31.20;37.90;;;;;;5109515;27;20035;-93
2022/07/31 14:28:02;;;;;;;6.53;0.90;;;30.90;38.00;;;;;;5109487;28;20092;-92
2022/07/31 14:30:30;;;;;;;1.98;0.63;;;;;;;;;;5089882;28;20028;-92
2022/07/31 14:32:56;;;;;;;2.15;0.70;;;;;;;;;;5095925;28;20106;-92
2022/07/31 14:35:22;;;;;;;1.23;0.70;;;;;;;;;;5096756;28;20055;-95
2022/07/31 14:37:48;;;;;;;4.05;1.05;;;;;;;;;;5116063;27;20051;-93
2022/07/31 14:40:14;;;;;;;0.82;0.70;;;30.50;38.60;;;;;;5096717;28;20063;-93
2022/07/31 14:42:41;;;;;;;0.55;0.50;;;;;;;;;;5096299;28;20023;-93
2022/07/31 14:45:09;;;;;;;1.73;0.63;;;30.40;37.70;;;;;;5109340;28;20043;-92
2022/07/31 14:47:35;;;;;;;1.35;0.47;;;;;;;;;;5096476;28;20027;-93
2022/07/31 14:50:01;;;;;;;1.23;0.38;;;;;;;;;;5099465;28;20076;-92
2022/07/31 14:52:27;;;;;;;1.30;0.82;;;;;;;;;;5130692;27;20019;-96
2022/07/31 14:54:53;;;;;;;2.53;0.65;;;;;;;;;;5098957;28;20042;-95
2022/07/31 14:57:19;;;;;;;1.48;0.52;;;;;;;;;;5085066;28;20162;-95
2022/07/31 14:59:46;;;;;;;0.63;0.55;;;;;;;;;;5088922;28;20047;-95
2022/07/31 15:02:12;;;;;;;0.88;0.52;;;;;;;;;;5103810;28;20666;-95
2022/07/31 15:04:38;;;;;;;2.38;0.70;;;;;;;;;;5095777;28;20028;-96
2022/07/31 15:07:04;;;;;;;2.05;0.60;;;;;;;;;;5125319;27;20028;-96
2022/07/31 15:09:30;;;;;;;1.70;0.43;;;;;;;;;;5114431;28;20092;-96
2022/07/31 15:11:59;;;;;;;0.52;0.47;;;;;;;;;;5083657;28;20555;-96
2022/07/31 15:14:25;;;;;;;2.00;0.43;;;;;;;;;;5105011;28;20138;-95
2022/07/31 15:16:51;;;;;;;0.98;0.40;;;;;;;;;;5105785;28;20485;-96
2022/07/31 15:19:17;;;;;;;4.10;1.30;;;;;;;;;;5087938;28;20043;-96
2022/07/31 15:21:46;;;;;;;1.63;0.93;;;;;;;;;;5117956;28;20023;-96
2022/07/31 15:24:12;;;;;;;1.35;0.65;;;;;;;;;;5105879;28;20031;-96
2022/07/31 15:26:40;;;;;;;0.60;0.32;;;;;;;;;;5125255;27;20100;-96
2022/07/31 15:29:08;;;;;;;0.60;0.50;;;;;;;;;;5122120;28;20011;-96
2022/07/31 15:31:34;;;;;;;1.55;0.63;;;;;;;;;;5128823;28;20004;-96
2022/07/31 15:34:03;;;;;;;0.40;0.40;;;;;;;;;;5122316;28;20053;-96
2022/07/31 15:36:30;;;;;;;1.17;0.50;;;;;;;;;;5126000;27;20039;-96
2022/07/31 15:38:56;;;;;;;1.13;0.60;;;;;;;;;;5127484;28;20016;-96
2022/07/31 15:41:22;;;;;;;3.05;0.60;;;;;;;;;;5124470;27;20046;-96
2022/07/31 15:43:48;;;;;;;5.07;1.02;;;;;;;;;;5130404;27;20039;-96
2022/07/31 15:46:14;;;;;;;2.90;0.68;;;;;;;;;;5103519;28;20437;-96
2022/07/31 15:48:40;;;;;;;3.05;0.68;;;;;;;;;;5119219;28;20024;-96
2022/07/31 15:51:07;;;;;;;2.55;0.60;;;;;;;;;;5122650;27;20015;-96
2022/07/31 15:53:34;;;;;;;0.70;0.30;;;;;;;;;;5119798;27;20038;-96
2022/07/31 15:56:00;;;;;;;1.47;0.50;;;;;;;;;;5123427;27;20026;-96
2022/07/31 15:58:26;;;;;;;1.42;0.60;;;;;;;;;;5113387;28;20131;-96
2022/07/31 16:00:52;;;;;;;1.10;0.60;;;;;;;;;;5111398;28;20103;-96
2022/07/31 16:03:18;;;;;;;0.65;0.45;;;;;;;;;;5091441;28;20027;-96
2022/07/31 16:05:44;;;;;;;0.73;0.47;;;;;;;;;;5104745;28;20023;-96